Anderson Regional Airport Anderson US
ICAO: KAND
IATA: AND
Category: Medium
Scheduled Services: No

Elevation: 782 ft
TransAlt. 18000 ft.

Airport Communications:
GREER APP/DEP:118.8
ASOS:120.675
CTAF:123.6
RDO:122.2
UNICOM:122.95

KAND Zoom In..

If you have problems with the map follow the link
https://www.worldairports.se/pages/airport.php?
ICAO=KAND

Runways:

(A) RW 05 length 6002 ft width 149 ft
ILS 111.90 / hdg 51

(B) RW 17 length 4996 ft width 149 ft
---- / hdg 171

(C) RW 23 length 6002 ft width 149 ft
---- / hdg 231

(D) RW 35 length 4996 ft width 149 ft
---- / hdg 351

Location; KAND
Day. 24 / Time. 07.56 Zulu
* Altimeter: 29.63
* Temperature: 15° c. 59°f.
* Wind from: 190° Speed 13 kn.
Dewpoint: 14° c.
Visibility: 9 Statute Miles.
Clouds: Broken 600 ft.
Clouds: Overcast 1300 ft.
Conditions: Light Rain.

KAND 240756Z AUTO 19013KT 9SM -RA BKN006 OVC013 15/14 A2963 RMK AO2 CIG 004V010 SLP032 P0003 T01500139


Wind From 190°
Speed 13 kn.

 
 
jpsmedia.com for Web Design worldairports.se 2019   terms of use